sensor_id;sensor_type;location;lat;lon;timestamp;pressure;altitude;pressure_sealevel;temperature;humidity
56632;BME280;42503;39.928;-75.152;2023-03-01T00:05:36;101374.84;;;20.55;35.57
56632;BME280;42503;39.928;-75.152;2023-03-01T00:15:44;101377.91;;;20.53;35.58
56632;BME280;42503;39.928;-75.152;2023-03-01T00:25:45;101382.03;;;20.51;35.82
56632;BME280;42503;39.928;-75.152;2023-03-01T00:35:47;101409.84;;;20.51;35.66
56632;BME280;42503;39.928;-75.152;2023-03-01T00:45:48;101400.94;;;20.49;35.68
56632;BME280;42503;39.928;-75.152;2023-03-01T00:55:50;101397.06;;;20.50;35.71
56632;BME280;42503;39.928;-75.152;2023-03-01T01:05:54;101382.56;;;20.48;36.01
56632;BME280;42503;39.928;-75.152;2023-03-01T01:16:00;101381.91;;;20.36;36.18
56632;BME280;42503;39.928;-75.152;2023-03-01T01:26:07;101437.34;;;20.47;35.96
56632;BME280;42503;39.928;-75.152;2023-03-01T01:36:09;101451.81;;;20.49;36.23
56632;BME280;42503;39.928;-75.152;2023-03-01T01:46:30;101449.09;;;20.27;36.61
56632;BME280;42503;39.928;-75.152;2023-03-01T01:56:32;101503.84;;;20.54;36.61
56632;BME280;42503;39.928;-75.152;2023-03-01T02:06:39;101499.69;;;20.56;36.21
56632;BME280;42503;39.928;-75.152;2023-03-01T02:16:46;101511.16;;;20.65;36.52
56632;BME280;42503;39.928;-75.152;2023-03-01T02:26:52;101533.72;;;20.69;36.75
56632;BME280;42503;39.928;-75.152;2023-03-01T02:37:09;101522.91;;;20.72;36.58
56632;BME280;42503;39.928;-75.152;2023-03-01T02:47:13;101538.53;;;20.78;36.73
56632;BME280;42503;39.928;-75.152;2023-03-01T02:57:15;101536.38;;;20.86;36.99
56632;BME280;42503;39.928;-75.152;2023-03-01T03:07:16;101561.72;;;20.89;36.84
56632;BME280;42503;39.928;-75.152;2023-03-01T03:17:18;101567.91;;;20.96;37.09
56632;BME280;42503;39.928;-75.152;2023-03-01T03:27:19;101580.44;;;20.99;36.75
56632;BME280;42503;39.928;-75.152;2023-03-01T03:37:20;101600.53;;;21.06;37.05
56632;BME280;42503;39.928;-75.152;2023-03-01T03:47:41;101577.84;;;20.87;37.19
56632;BME280;42503;39.928;-75.152;2023-03-01T03:57:42;101630.59;;;21.09;37.07
56632;BME280;42503;39.928;-75.152;2023-03-01T04:07:45;101607.16;;;21.00;36.92
56632;BME280;42503;39.928;-75.152;2023-03-01T04:17:46;101658.53;;;21.19;37.30
56632;BME280;42503;39.928;-75.152;2023-03-01T04:27:48;101680.50;;;21.21;37.27
56632;BME280;42503;39.928;-75.152;2023-03-01T04:37:49;101705.31;;;21.22;37.57
56632;BME280;42503;39.928;-75.152;2023-03-01T04:47:53;101722.84;;;21.23;37.60
56632;BME280;42503;39.928;-75.152;2023-03-01T04:57:55;101732.03;;;21.23;37.33
56632;BME280;42503;39.928;-75.152;2023-03-01T05:08:01;101721.97;;;21.17;37.33
56632;BME280;42503;39.928;-75.152;2023-03-01T05:18:03;101746.78;;;21.24;37.88
56632;BME280;42503;39.928;-75.152;2023-03-01T05:28:11;101751.53;;;21.23;37.71
56632;BME280;42503;39.928;-75.152;2023-03-01T05:38:13;101761.31;;;21.26;37.40
56632;BME280;42503;39.928;-75.152;2023-03-01T05:48:14;101768.78;;;21.25;37.47
56632;BME280;42503;39.928;-75.152;2023-03-01T05:58:20;101753.63;;;21.11;37.48
56632;BME280;42503;39.928;-75.152;2023-03-01T06:08:25;101763.13;;;21.15;37.30
56632;BME280;42503;39.928;-75.152;2023-03-01T06:18:29;101784.72;;;21.30;37.42
56632;BME280;42503;39.928;-75.152;2023-03-01T06:28:34;101766.56;;;21.22;37.18
56632;BME280;42503;39.928;-75.152;2023-03-01T06:38:35;101794.63;;;21.43;37.30
56632;BME280;42503;39.928;-75.152;2023-03-01T06:48:36;101799.16;;;21.49;37.16
56632;BME280;42503;39.928;-75.152;2023-03-01T06:58:38;101795.44;;;21.43;36.99
56632;BME280;42503;39.928;-75.152;2023-03-01T07:08:39;101789.44;;;21.56;37.21
56632;BME280;42503;39.928;-75.152;2023-03-01T07:18:41;101779.47;;;21.61;37.24
56632;BME280;42503;39.928;-75.152;2023-03-01T07:28:42;101780.88;;;21.63;36.88
56632;BME280;42503;39.928;-75.152;2023-03-01T07:38:44;101773.09;;;21.65;36.80
56632;BME280;42503;39.928;-75.152;2023-03-01T07:48:45;101775.88;;;21.65;36.96
56632;BME280;42503;39.928;-75.152;2023-03-01T07:58:47;101783.41;;;21.65;37.39
56632;BME280;42503;39.928;-75.152;2023-03-01T08:08:51;101784.81;;;21.67;37.03
56632;BME280;42503;39.928;-75.152;2023-03-01T08:18:52;101766.56;;;21.49;36.71
56632;BME280;42503;39.928;-75.152;2023-03-01T08:28:56;101814.03;;;21.65;36.55
56632;BME280;42503;39.928;-75.152;2023-03-01T08:39:04;101823.50;;;21.64;36.50
56632;BME280;42503;39.928;-75.152;2023-03-01T08:49:06;101789.22;;;21.58;36.55
56632;BME280;42503;39.928;-75.152;2023-03-01T08:59:09;101813.72;;;21.61;36.10
56632;BME280;42503;39.928;-75.152;2023-03-01T09:09:15;101792.94;;;21.42;36.14
56632;BME280;42503;39.928;-75.152;2023-03-01T09:19:17;101774.88;;;21.44;35.85
56632;BME280;42503;39.928;-75.152;2023-03-01T09:29:21;101791.59;;;21.44;36.05
56632;BME280;42503;39.928;-75.152;2023-03-01T09:39:23;101819.72;;;21.48;35.80
56632;BME280;42503;39.928;-75.152;2023-03-01T09:49:30;101820.28;;;21.45;36.06
56632;BME280;42503;39.928;-75.152;2023-03-01T10:09:45;101823.72;;;21.57;35.58
56632;BME280;42503;39.928;-75.152;2023-03-01T10:19:47;101840.53;;;21.67;35.77
56632;BME280;42503;39.928;-75.152;2023-03-01T10:30:22;101838.84;;;21.66;35.58
56632;BME280;42503;39.928;-75.152;2023-03-01T10:40:32;101827.22;;;21.74;35.52
56632;BME280;42503;39.928;-75.152;2023-03-01T10:50:45;101869.84;;;21.75;35.71
56632;BME280;42503;39.928;-75.152;2023-03-01T11:00:58;101920.81;;;21.75;35.50
56632;BME280;42503;39.928;-75.152;2023-03-01T11:11:13;101921.94;;;21.74;35.46
56632;BME280;42503;39.928;-75.152;2023-03-01T11:21:16;101923.03;;;21.73;35.04
56632;BME280;42503;39.928;-75.152;2023-03-01T11:31:18;101947.00;;;21.74;35.29
56632;BME280;42503;39.928;-75.152;2023-03-01T11:41:25;101959.53;;;21.72;34.79
56632;BME280;42503;39.928;-75.152;2023-03-01T12:53:45;102063.78;;;21.54;35.21
56632;BME280;42503;39.928;-75.152;2023-03-01T13:04:07;102061.19;;;21.69;35.57
56632;BME280;42503;39.928;-75.152;2023-03-01T13:24:40;102083.91;;;21.83;35.38
56632;BME280;42503;39.928;-75.152;2023-03-01T13:34:45;102095.44;;;21.92;35.30
56632;BME280;42503;39.928;-75.152;2023-03-01T13:44:49;102085.91;;;21.88;35.26
56632;BME280;42503;39.928;-75.152;2023-03-01T13:54:56;102078.22;;;21.95;34.84
56632;BME280;42503;39.928;-75.152;2023-03-01T14:04:59;102076.66;;;22.04;34.91
56632;BME280;42503;39.928;-75.152;2023-03-01T14:25:31;102072.81;;;22.10;34.85
56632;BME280;42503;39.928;-75.152;2023-03-01T14:35:36;102046.38;;;22.13;34.96
56632;BME280;42503;39.928;-75.152;2023-03-01T14:45:37;102053.91;;;22.12;34.72
56632;BME280;42503;39.928;-75.152;2023-03-01T14:55:42;102027.19;;;22.16;34.47
56632;BME280;42503;39.928;-75.152;2023-03-01T15:05:45;102011.59;;;22.20;34.73
56632;BME280;42503;39.928;-75.152;2023-03-01T15:15:51;101964.81;;;22.22;34.86
56632;BME280;42503;39.928;-75.152;2023-03-01T15:25:53;101940.19;;;22.14;34.96
56632;BME280;42503;39.928;-75.152;2023-03-01T15:36:30;101958.44;;;22.27;34.68
56632;BME280;42503;39.928;-75.152;2023-03-01T15:46:35;101915.03;;;22.09;34.89
56632;BME280;42503;39.928;-75.152;2023-03-01T15:56:44;101939.19;;;22.30;34.89
56632;BME280;42503;39.928;-75.152;2023-03-01T16:06:52;101930.59;;;22.32;34.73
56632;BME280;42503;39.928;-75.152;2023-03-01T16:16:59;101921.38;;;22.31;34.88
56632;BME280;42503;39.928;-75.152;2023-03-01T16:27:00;101910.22;;;22.31;34.48
56632;BME280;42503;39.928;-75.152;2023-03-01T16:37:02;101877.00;;;22.30;34.59
56632;BME280;42503;39.928;-75.152;2023-03-01T16:47:09;101883.75;;;22.34;34.72
56632;BME280;42503;39.928;-75.152;2023-03-01T16:57:10;101867.25;;;22.27;34.67
56632;BME280;42503;39.928;-75.152;2023-03-01T17:07:15;101866.19;;;22.33;34.26
56632;BME280;42503;39.928;-75.152;2023-03-01T17:17:16;101858.94;;;22.32;34.33
56632;BME280;42503;39.928;-75.152;2023-03-01T17:27:18;101872.59;;;22.34;34.10
56632;BME280;42503;39.928;-75.152;2023-03-01T17:37:19;101862.81;;;22.31;34.07
56632;BME280;42503;39.928;-75.152;2023-03-01T17:47:20;101829.91;;;22.28;34.53
56632;BME280;42503;39.928;-75.152;2023-03-01T17:57:28;101793.13;;;22.31;34.71
56632;BME280;42503;39.928;-75.152;2023-03-01T18:07:32;101771.91;;;22.36;35.14
56632;BME280;42503;39.928;-75.152;2023-03-01T18:17:33;101734.31;;;22.38;36.78
56632;BME280;42503;39.928;-75.152;2023-03-01T18:27:34;101723.16;;;22.43;36.98
56632;BME280;42503;39.928;-75.152;2023-03-01T18:37:36;101686.63;;;22.45;37.70
56632;BME280;42503;39.928;-75.152;2023-03-01T18:47:38;101670.47;;;22.47;37.47
56632;BME280;42503;39.928;-75.152;2023-03-01T18:57:39;101642.88;;;22.45;36.91
56632;BME280;42503;39.928;-75.152;2023-03-01T19:07:43;101602.13;;;22.39;36.69
56632;BME280;42503;39.928;-75.152;2023-03-01T19:17:45;101559.16;;;22.40;36.74
56632;BME280;42503;39.928;-75.152;2023-03-01T19:27:46;101541.34;;;22.36;36.25
56632;BME280;42503;39.928;-75.152;2023-03-01T19:37:49;101509.81;;;22.25;36.11
56632;BME280;42503;39.928;-75.152;2023-03-01T19:47:50;101508.72;;;22.37;35.76
56632;BME280;42503;39.928;-75.152;2023-03-01T19:57:55;101479.72;;;22.32;35.11
56632;BME280;42503;39.928;-75.152;2023-03-01T20:07:56;101488.34;;;22.31;35.90
56632;BME280;42503;39.928;-75.152;2023-03-01T20:17:58;101445.44;;;22.32;35.83
56632;BME280;42503;39.928;-75.152;2023-03-01T20:28:00;101420.59;;;22.30;35.49
56632;BME280;42503;39.928;-75.152;2023-03-01T20:38:02;101417.53;;;22.27;35.27
56632;BME280;42503;39.928;-75.152;2023-03-01T20:48:04;101423.97;;;22.22;35.29
56632;BME280;42503;39.928;-75.152;2023-03-01T20:58:06;101421.41;;;22.11;35.42
56632;BME280;42503;39.928;-75.152;2023-03-01T21:08:07;101450.13;;;22.21;35.83
56632;BME280;42503;39.928;-75.152;2023-03-01T21:18:08;101438.97;;;22.21;35.47
56632;BME280;42503;39.928;-75.152;2023-03-01T21:28:09;101419.47;;;22.16;35.74
56632;BME280;42503;39.928;-75.152;2023-03-01T21:38:11;101417.81;;;22.15;35.69
56632;BME280;42503;39.928;-75.152;2023-03-01T21:48:15;101414.97;;;22.10;35.79
56632;BME280;42503;39.928;-75.152;2023-03-01T21:58:17;101412.16;;;21.90;36.65
56632;BME280;42503;39.928;-75.152;2023-03-01T22:08:19;101422.16;;;21.65;36.86
56632;BME280;42503;39.928;-75.152;2023-03-01T22:18:20;101446.09;;;21.66;37.15
56632;BME280;42503;39.928;-75.152;2023-03-01T22:28:22;101434.94;;;21.61;37.14
56632;BME280;42503;39.928;-75.152;2023-03-01T22:38:23;101432.16;;;21.56;37.28
56632;BME280;42503;39.928;-75.152;2023-03-01T22:48:25;101446.88;;;21.51;37.52
56632;BME280;42503;39.928;-75.152;2023-03-01T22:58:29;101447.41;;;21.48;36.97
56632;BME280;42503;39.928;-75.152;2023-03-01T23:08:30;101460.50;;;21.43;37.24
56632;BME280;42503;39.928;-75.152;2023-03-01T23:18:32;101468.81;;;21.38;37.41
56632;BME280;42503;39.928;-75.152;2023-03-01T23:28:35;101462.66;;;21.30;37.28
56632;BME280;42503;39.928;-75.152;2023-03-01T23:38:40;101475.53;;;21.42;37.50
56632;BME280;42503;39.928;-75.152;2023-03-01T23:48:43;101466.63;;;21.40;37.58
56632;BME280;42503;39.928;-75.152;2023-03-01T23:58:44;101454.06;;;21.37;37.43
